sensor_id;sensor_type;location;lat;lon;timestamp;P1;durP1;ratioP1;P2;durP2;ratioP2
59458;SDS011;45269;43.568;22.244;2023-04-12T00:02:19;163.50;;;118.80;;
59458;SDS011;45269;43.568;22.244;2023-04-12T00:04:45;146.05;;;108.10;;
59458;SDS011;45269;43.568;22.244;2023-04-12T00:07:22;123.90;;;96.13;;
59458;SDS011;45269;43.568;22.244;2023-04-12T00:09:48;119.13;;;94.75;;
59458;SDS011;45269;43.568;22.244;2023-04-12T00:12:13;99.47;;;74.63;;
59458;SDS011;45269;43.568;22.244;2023-04-12T00:14:38;84.13;;;63.40;;
59458;SDS011;45269;43.568;22.244;2023-04-12T00:17:04;72.43;;;56.28;;
59458;SDS011;45269;43.568;22.244;2023-04-12T00:19:29;91.97;;;67.90;;
59458;SDS011;45269;43.568;22.244;2023-04-12T00:21:55;63.30;;;50.70;;
59458;SDS011;45269;43.568;22.244;2023-04-12T00:24:20;66.15;;;52.15;;
59458;SDS011;45269;43.568;22.244;2023-04-12T00:26:46;53.92;;;43.10;;
59458;SDS011;45269;43.568;22.244;2023-04-12T00:29:11;53.97;;;44.85;;
59458;SDS011;45269;43.568;22.244;2023-04-12T00:31:36;55.70;;;43.15;;
59458;SDS011;45269;43.568;22.244;2023-04-12T00:34:01;44.65;;;37.85;;
59458;SDS011;45269;43.568;22.244;2023-04-12T00:36:27;47.80;;;36.97;;
59458;SDS011;45269;43.568;22.244;2023-04-12T00:38:52;40.03;;;31.52;;
59458;SDS011;45269;43.568;22.244;2023-04-12T00:41:17;38.83;;;31.05;;
59458;SDS011;45269;43.568;22.244;2023-04-12T00:43:43;38.53;;;30.48;;
59458;SDS011;45269;43.568;22.244;2023-04-12T00:46:08;48.05;;;38.92;;
59458;SDS011;45269;43.568;22.244;2023-04-12T00:48:34;41.03;;;34.60;;
59458;SDS011;45269;43.568;22.244;2023-04-12T00:51:00;37.75;;;30.60;;
59458;SDS011;45269;43.568;22.244;2023-04-12T00:53:29;39.67;;;30.05;;
59458;SDS011;45269;43.568;22.244;2023-04-12T00:55:55;36.40;;;30.42;;
59458;SDS011;45269;43.568;22.244;2023-04-12T00:58:21;40.92;;;32.95;;
59458;SDS011;45269;43.568;22.244;2023-04-12T01:00:48;37.03;;;30.17;;
59458;SDS011;45269;43.568;22.244;2023-04-12T01:03:17;37.88;;;30.40;;
59458;SDS011;45269;43.568;22.244;2023-04-12T01:13:52;41.85;;;35.05;;
59458;SDS011;45269;43.568;22.244;2023-04-12T01:18:55;34.42;;;26.70;;
59458;SDS011;45269;43.568;22.244;2023-04-12T01:21:30;33.53;;;29.85;;
59458;SDS011;45269;43.568;22.244;2023-04-12T01:28:56;37.35;;;32.42;;
59458;SDS011;45269;43.568;22.244;2023-04-12T01:31:23;38.47;;;33.13;;
59458;SDS011;45269;43.568;22.244;2023-04-12T01:33:50;37.08;;;32.05;;
59458;SDS011;45269;43.568;22.244;2023-04-12T01:36:17;36.97;;;30.85;;
59458;SDS011;45269;43.568;22.244;2023-04-12T01:38:43;35.22;;;31.42;;
59458;SDS011;45269;43.568;22.244;2023-04-12T01:41:09;36.78;;;30.55;;
59458;SDS011;45269;43.568;22.244;2023-04-12T01:43:43;33.85;;;30.25;;
59458;SDS011;45269;43.568;22.244;2023-04-12T01:46:13;35.75;;;30.08;;
59458;SDS011;45269;43.568;22.244;2023-04-12T01:48:41;38.35;;;32.03;;
59458;SDS011;45269;43.568;22.244;2023-04-12T01:54:05;37.80;;;31.92;;
59458;SDS011;45269;43.568;22.244;2023-04-12T01:56:35;35.35;;;27.95;;
59458;SDS011;45269;43.568;22.244;2023-04-12T01:59:01;36.58;;;30.45;;
59458;SDS011;45269;43.568;22.244;2023-04-12T02:01:26;35.65;;;29.08;;
59458;SDS011;45269;43.568;22.244;2023-04-12T02:03:53;34.70;;;30.98;;
59458;SDS011;45269;43.568;22.244;2023-04-12T02:06:19;34.42;;;27.52;;
59458;SDS011;45269;43.568;22.244;2023-04-12T02:08:45;31.90;;;27.20;;
59458;SDS011;45269;43.568;22.244;2023-04-12T02:11:11;30.70;;;27.23;;
59458;SDS011;45269;43.568;22.244;2023-04-12T02:13:36;29.95;;;26.70;;
59458;SDS011;45269;43.568;22.244;2023-04-12T02:16:02;30.98;;;26.75;;
59458;SDS011;45269;43.568;22.244;2023-04-12T02:18:27;28.30;;;24.88;;
59458;SDS011;45269;43.568;22.244;2023-04-12T02:20:54;26.52;;;23.70;;
59458;SDS011;45269;43.568;22.244;2023-04-12T02:23:19;31.02;;;27.75;;
59458;SDS011;45269;43.568;22.244;2023-04-12T02:25:45;29.52;;;26.45;;
59458;SDS011;45269;43.568;22.244;2023-04-12T02:28:11;30.60;;;27.55;;
59458;SDS011;45269;43.568;22.244;2023-04-12T02:30:37;29.83;;;26.40;;
59458;SDS011;45269;43.568;22.244;2023-04-12T02:33:02;30.10;;;26.38;;
59458;SDS011;45269;43.568;22.244;2023-04-12T02:35:30;30.85;;;27.42;;
59458;SDS011;45269;43.568;22.244;2023-04-12T02:37:55;29.50;;;26.48;;
59458;SDS011;45269;43.568;22.244;2023-04-12T02:40:21;31.15;;;27.77;;
59458;SDS011;45269;43.568;22.244;2023-04-12T02:42:47;33.85;;;28.25;;
59458;SDS011;45269;43.568;22.244;2023-04-12T02:45:12;34.33;;;29.63;;
59458;SDS011;45269;43.568;22.244;2023-04-12T02:47:38;34.65;;;30.95;;
59458;SDS011;45269;43.568;22.244;2023-04-12T02:50:05;32.55;;;29.13;;
59458;SDS011;45269;43.568;22.244;2023-04-12T02:52:30;34.88;;;29.85;;
59458;SDS011;45269;43.568;22.244;2023-04-12T02:54:57;31.40;;;27.90;;
59458;SDS011;45269;43.568;22.244;2023-04-12T02:57:22;32.20;;;28.80;;
59458;SDS011;45269;43.568;22.244;2023-04-12T02:59:52;32.33;;;28.17;;
59458;SDS011;45269;43.568;22.244;2023-04-12T03:02:18;34.05;;;29.58;;
59458;SDS011;45269;43.568;22.244;2023-04-12T03:04:43;34.97;;;28.85;;
59458;SDS011;45269;43.568;22.244;2023-04-12T03:07:10;29.40;;;25.65;;
59458;SDS011;45269;43.568;22.244;2023-04-12T03:09:36;30.38;;;25.45;;
59458;SDS011;45269;43.568;22.244;2023-04-12T03:12:02;27.88;;;24.98;;
59458;SDS011;45269;43.568;22.244;2023-04-12T03:14:28;22.63;;;19.73;;
59458;SDS011;45269;43.568;22.244;2023-04-12T03:16:53;23.90;;;20.13;;
59458;SDS011;45269;43.568;22.244;2023-04-12T03:19:18;18.88;;;16.88;;
59458;SDS011;45269;43.568;22.244;2023-04-12T03:21:43;19.13;;;17.13;;
59458;SDS011;45269;43.568;22.244;2023-04-12T03:24:09;23.15;;;18.60;;
59458;SDS011;45269;43.568;22.244;2023-04-12T03:26:34;21.02;;;18.83;;
59458;SDS011;45269;43.568;22.244;2023-04-12T03:29:00;19.23;;;17.23;;
59458;SDS011;45269;43.568;22.244;2023-04-12T03:31:29;16.60;;;14.80;;
59458;SDS011;45269;43.568;22.244;2023-04-12T03:33:55;15.10;;;13.60;;
59458;SDS011;45269;43.568;22.244;2023-04-12T03:36:20;18.33;;;15.40;;
59458;SDS011;45269;43.568;22.244;2023-04-12T03:38:46;14.02;;;12.50;;
59458;SDS011;45269;43.568;22.244;2023-04-12T03:41:11;12.57;;;11.27;;
59458;SDS011;45269;43.568;22.244;2023-04-12T03:43:36;13.88;;;11.38;;
59458;SDS011;45269;43.568;22.244;2023-04-12T03:46:02;13.00;;;11.50;;
59458;SDS011;45269;43.568;22.244;2023-04-12T03:48:27;11.68;;;10.32;;
59458;SDS011;45269;43.568;22.244;2023-04-12T03:50:53;12.65;;;10.25;;
59458;SDS011;45269;43.568;22.244;2023-04-12T03:53:19;12.15;;;9.80;;
59458;SDS011;45269;43.568;22.244;2023-04-12T03:55:45;15.95;;;12.18;;
59458;SDS011;45269;43.568;22.244;2023-04-12T03:58:10;13.75;;;10.77;;
59458;SDS011;45269;43.568;22.244;2023-04-12T04:00:37;10.48;;;9.38;;
59458;SDS011;45269;43.568;22.244;2023-04-12T04:03:03;11.43;;;9.20;;
59458;SDS011;45269;43.568;22.244;2023-04-12T04:05:29;12.60;;;11.30;;
59458;SDS011;45269;43.568;22.244;2023-04-12T04:07:55;11.65;;;10.45;;
59458;SDS011;45269;43.568;22.244;2023-04-12T04:10:24;14.55;;;11.60;;
59458;SDS011;45269;43.568;22.244;2023-04-12T04:12:49;10.45;;;8.98;;
59458;SDS011;45269;43.568;22.244;2023-04-12T04:15:15;9.60;;;8.35;;
59458;SDS011;45269;43.568;22.244;2023-04-12T04:17:40;14.68;;;9.07;;
59458;SDS011;45269;43.568;22.244;2023-04-12T04:20:07;9.82;;;8.77;;
59458;SDS011;45269;43.568;22.244;2023-04-12T04:22:33;9.10;;;8.10;;
59458;SDS011;45269;43.568;22.244;2023-04-12T04:24:58;12.50;;;9.18;;
59458;SDS011;45269;43.568;22.244;2023-04-12T04:27:25;12.23;;;10.52;;
59458;SDS011;45269;43.568;22.244;2023-04-12T04:29:54;9.57;;;7.85;;
59458;SDS011;45269;43.568;22.244;2023-04-12T04:32:22;12.90;;;9.75;;
59458;SDS011;45269;43.568;22.244;2023-04-12T04:34:47;9.85;;;7.88;;
59458;SDS011;45269;43.568;22.244;2023-04-12T04:37:12;7.53;;;6.55;;
59458;SDS011;45269;43.568;22.244;2023-04-12T04:39:38;11.23;;;7.82;;
59458;SDS011;45269;43.568;22.244;2023-04-12T04:42:03;7.65;;;6.45;;
59458;SDS011;45269;43.568;22.244;2023-04-12T04:44:30;7.90;;;6.10;;
59458;SDS011;45269;43.568;22.244;2023-04-12T04:46:55;18.85;;;14.57;;
59458;SDS011;45269;43.568;22.244;2023-04-12T04:49:23;33.15;;;28.70;;
59458;SDS011;45269;43.568;22.244;2023-04-12T04:51:48;9.32;;;7.13;;
59458;SDS011;45269;43.568;22.244;2023-04-12T04:54:14;7.95;;;5.90;;
59458;SDS011;45269;43.568;22.244;2023-04-12T04:56:40;9.80;;;7.50;;
59458;SDS011;45269;43.568;22.244;2023-04-12T04:59:06;8.40;;;7.32;;
59458;SDS011;45269;43.568;22.244;2023-04-12T05:01:31;8.25;;;5.90;;
59458;SDS011;45269;43.568;22.244;2023-04-12T05:03:59;6.15;;;5.53;;
59458;SDS011;45269;43.568;22.244;2023-04-12T05:06:25;7.60;;;6.80;;
59458;SDS011;45269;43.568;22.244;2023-04-12T05:08:51;26.35;;;23.65;;
59458;SDS011;45269;43.568;22.244;2023-04-12T05:11:17;10.35;;;9.25;;
59458;SDS011;45269;43.568;22.244;2023-04-12T05:13:42;6.70;;;5.88;;
59458;SDS011;45269;43.568;22.244;2023-04-12T05:16:07;10.82;;;9.75;;
59458;SDS011;45269;43.568;22.244;2023-04-12T05:18:33;11.75;;;10.55;;
59458;SDS011;45269;43.568;22.244;2023-04-12T05:21:02;11.23;;;10.18;;
59458;SDS011;45269;43.568;22.244;2023-04-12T05:23:28;8.65;;;7.82;;
59458;SDS011;45269;43.568;22.244;2023-04-12T05:25:53;6.68;;;6.10;;
59458;SDS011;45269;43.568;22.244;2023-04-12T05:28:18;9.90;;;8.98;;
59458;SDS011;45269;43.568;22.244;2023-04-12T05:30:44;8.63;;;7.82;;
59458;SDS011;45269;43.568;22.244;2023-04-12T05:33:09;12.07;;;10.88;;
59458;SDS011;45269;43.568;22.244;2023-04-12T05:35:35;15.68;;;14.18;;
59458;SDS011;45269;43.568;22.244;2023-04-12T05:38:00;15.18;;;13.65;;
59458;SDS011;45269;43.568;22.244;2023-04-12T05:40:26;15.65;;;14.02;;
59458;SDS011;45269;43.568;22.244;2023-04-12T05:42:52;9.98;;;9.07;;
59458;SDS011;45269;43.568;22.244;2023-04-12T05:45:17;8.65;;;7.90;;
59458;SDS011;45269;43.568;22.244;2023-04-12T05:47:42;7.68;;;6.78;;
59458;SDS011;45269;43.568;22.244;2023-04-12T05:50:08;7.10;;;6.38;;
59458;SDS011;45269;43.568;22.244;2023-04-12T05:52:33;6.82;;;6.22;;
59458;SDS011;45269;43.568;22.244;2023-04-12T05:54:58;6.03;;;5.43;;
59458;SDS011;45269;43.568;22.244;2023-04-12T05:57:24;8.30;;;7.43;;
59458;SDS011;45269;43.568;22.244;2023-04-12T05:59:49;8.48;;;7.68;;
59458;SDS011;45269;43.568;22.244;2023-04-12T06:02:15;5.90;;;5.40;;
59458;SDS011;45269;43.568;22.244;2023-04-12T06:04:40;8.23;;;7.35;;
59458;SDS011;45269;43.568;22.244;2023-04-12T06:07:06;12.70;;;10.25;;
59458;SDS011;45269;43.568;22.244;2023-04-12T06:09:31;9.77;;;8.77;;
59458;SDS011;45269;43.568;22.244;2023-04-12T06:11:56;12.45;;;11.15;;
59458;SDS011;45269;43.568;22.244;2023-04-12T06:14:21;6.25;;;5.57;;
59458;SDS011;45269;43.568;22.244;2023-04-12T06:16:47;8.25;;;6.53;;
59458;SDS011;45269;43.568;22.244;2023-04-12T06:19:12;4.75;;;4.35;;
59458;SDS011;45269;43.568;22.244;2023-04-12T06:21:37;5.78;;;4.63;;
59458;SDS011;45269;43.568;22.244;2023-04-12T06:24:03;5.85;;;5.35;;
59458;SDS011;45269;43.568;22.244;2023-04-12T06:26:29;5.35;;;4.93;;
59458;SDS011;45269;43.568;22.244;2023-04-12T06:28:54;5.53;;;5.03;;
59458;SDS011;45269;43.568;22.244;2023-04-12T06:31:19;7.45;;;6.13;;
59458;SDS011;45269;43.568;22.244;2023-04-12T06:33:45;6.93;;;6.22;;
59458;SDS011;45269;43.568;22.244;2023-04-12T06:36:11;8.35;;;7.65;;
59458;SDS011;45269;43.568;22.244;2023-04-12T06:38:38;7.20;;;6.50;;
59458;SDS011;45269;43.568;22.244;2023-04-12T06:41:04;14.02;;;12.63;;
59458;SDS011;45269;43.568;22.244;2023-04-12T06:43:29;6.28;;;5.78;;
59458;SDS011;45269;43.568;22.244;2023-04-12T06:45:55;6.00;;;5.50;;
59458;SDS011;45269;43.568;22.244;2023-04-12T06:48:21;5.47;;;4.70;;
59458;SDS011;45269;43.568;22.244;2023-04-12T06:50:46;7.88;;;6.53;;
59458;SDS011;45269;43.568;22.244;2023-04-12T06:53:11;5.18;;;4.68;;
59458;SDS011;45269;43.568;22.244;2023-04-12T06:55:40;4.88;;;4.20;;
59458;SDS011;45269;43.568;22.244;2023-04-12T06:58:05;5.15;;;4.32;;
59458;SDS011;45269;43.568;22.244;2023-04-12T07:00:30;5.03;;;4.53;;
59458;SDS011;45269;43.568;22.244;2023-04-12T07:02:56;4.45;;;3.60;;
59458;SDS011;45269;43.568;22.244;2023-04-12T07:05:21;13.27;;;11.98;;
59458;SDS011;45269;43.568;22.244;2023-04-12T07:07:47;4.60;;;4.00;;
59458;SDS011;45269;43.568;22.244;2023-04-12T07:10:12;3.72;;;3.33;;
59458;SDS011;45269;43.568;22.244;2023-04-12T07:12:37;3.67;;;3.35;;
59458;SDS011;45269;43.568;22.244;2023-04-12T07:15:03;3.55;;;3.25;;
59458;SDS011;45269;43.568;22.244;2023-04-12T07:17:28;3.53;;;3.03;;
59458;SDS011;45269;43.568;22.244;2023-04-12T07:19:53;3.50;;;2.20;;
59458;SDS011;45269;43.568;22.244;2023-04-12T07:22:19;3.03;;;2.70;;
59458;SDS011;45269;43.568;22.244;2023-04-12T07:24:44;3.80;;;2.33;;
59458;SDS011;45269;43.568;22.244;2023-04-12T07:27:10;5.28;;;4.78;;
59458;SDS011;45269;43.568;22.244;2023-04-12T07:29:35;4.75;;;4.00;;
59458;SDS011;45269;43.568;22.244;2023-04-12T07:32:01;6.25;;;4.55;;
59458;SDS011;45269;43.568;22.244;2023-04-12T07:34:27;5.25;;;4.03;;
59458;SDS011;45269;43.568;22.244;2023-04-12T07:36:52;5.70;;;4.30;;
59458;SDS011;45269;43.568;22.244;2023-04-12T07:39:17;5.80;;;4.22;;
59458;SDS011;45269;43.568;22.244;2023-04-12T07:41:43;5.38;;;4.35;;
59458;SDS011;45269;43.568;22.244;2023-04-12T07:44:12;4.78;;;2.38;;
59458;SDS011;45269;43.568;22.244;2023-04-12T07:46:37;3.78;;;2.75;;
59458;SDS011;45269;43.568;22.244;2023-04-12T07:49:03;5.00;;;2.03;;
59458;SDS011;45269;43.568;22.244;2023-04-12T07:51:28;3.50;;;2.00;;
59458;SDS011;45269;43.568;22.244;2023-04-12T07:53:54;3.55;;;2.70;;
59458;SDS011;45269;43.568;22.244;2023-04-12T07:56:19;3.53;;;2.03;;
59458;SDS011;45269;43.568;22.244;2023-04-12T07:58:44;3.65;;;1.40;;
59458;SDS011;45269;43.568;22.244;2023-04-12T08:01:10;4.38;;;1.77;;
59458;SDS011;45269;43.568;22.244;2023-04-12T08:03:37;5.30;;;1.92;;
59458;SDS011;45269;43.568;22.244;2023-04-12T08:06:02;2.33;;;2.10;;
59458;SDS011;45269;43.568;22.244;2023-04-12T08:08:28;3.40;;;2.80;;
59458;SDS011;45269;43.568;22.244;2023-04-12T08:10:53;4.88;;;3.22;;
59458;SDS011;45269;43.568;22.244;2023-04-12T08:13:18;4.05;;;2.90;;
59458;SDS011;45269;43.568;22.244;2023-04-12T08:15:44;3.60;;;1.60;;
59458;SDS011;45269;43.568;22.244;2023-04-12T08:18:11;4.68;;;2.08;;
59458;SDS011;45269;43.568;22.244;2023-04-12T08:20:36;6.60;;;5.10;;
59458;SDS011;45269;43.568;22.244;2023-04-12T08:23:04;7.38;;;4.63;;
59458;SDS011;45269;43.568;22.244;2023-04-12T08:25:29;4.28;;;3.20;;
59458;SDS011;45269;43.568;22.244;2023-04-12T08:27:55;3.08;;;2.30;;
59458;SDS011;45269;43.568;22.244;2023-04-12T08:30:20;6.28;;;4.28;;
59458;SDS011;45269;43.568;22.244;2023-04-12T08:32:50;6.40;;;4.03;;
59458;SDS011;45269;43.568;22.244;2023-04-12T08:35:16;2.70;;;2.10;;
59458;SDS011;45269;43.568;22.244;2023-04-12T08:37:41;7.05;;;5.75;;
59458;SDS011;45269;43.568;22.244;2023-04-12T08:40:06;7.07;;;5.68;;
59458;SDS011;45269;43.568;22.244;2023-04-12T08:42:33;5.13;;;3.75;;
59458;SDS011;45269;43.568;22.244;2023-04-12T08:45:02;4.13;;;3.03;;
59458;SDS011;45269;43.568;22.244;2023-04-12T08:47:28;5.88;;;4.57;;
59458;SDS011;45269;43.568;22.244;2023-04-12T08:49:54;7.57;;;5.78;;
59458;SDS011;45269;43.568;22.244;2023-04-12T08:52:20;5.85;;;4.47;;
59458;SDS011;45269;43.568;22.244;2023-04-12T08:54:46;3.03;;;2.70;;
59458;SDS011;45269;43.568;22.244;2023-04-12T08:57:11;6.60;;;4.97;;
59458;SDS011;45269;43.568;22.244;2023-04-12T08:59:38;6.15;;;5.28;;
59458;SDS011;45269;43.568;22.244;2023-04-12T09:02:06;7.65;;;5.68;;
59458;SDS011;45269;43.568;22.244;2023-04-12T09:04:31;7.45;;;4.63;;
59458;SDS011;45269;43.568;22.244;2023-04-12T09:06:56;8.40;;;5.97;;
59458;SDS011;45269;43.568;22.244;2023-04-12T09:12:06;3.60;;;2.90;;
59458;SDS011;45269;43.568;22.244;2023-04-12T09:14:31;5.72;;;3.55;;
59458;SDS011;45269;43.568;22.244;2023-04-12T09:16:56;5.88;;;2.80;;
59458;SDS011;45269;43.568;22.244;2023-04-12T09:19:34;8.95;;;3.65;;
59458;SDS011;45269;43.568;22.244;2023-04-12T09:22:00;4.80;;;3.00;;
59458;SDS011;45269;43.568;22.244;2023-04-12T09:24:26;3.10;;;2.30;;
59458;SDS011;45269;43.568;22.244;2023-04-12T09:27:01;4.15;;;3.20;;
59458;SDS011;45269;43.568;22.244;2023-04-12T09:29:29;4.65;;;2.58;;
59458;SDS011;45269;43.568;22.244;2023-04-12T09:31:59;2.70;;;2.28;;
59458;SDS011;45269;43.568;22.244;2023-04-12T09:34:25;5.93;;;3.63;;
59458;SDS011;45269;43.568;22.244;2023-04-12T09:36:50;6.00;;;3.67;;
59458;SDS011;45269;43.568;22.244;2023-04-12T09:39:16;8.10;;;4.15;;
59458;SDS011;45269;43.568;22.244;2023-04-12T09:41:41;4.07;;;2.80;;
59458;SDS011;45269;43.568;22.244;2023-04-12T09:44:06;3.17;;;2.60;;
59458;SDS011;45269;43.568;22.244;2023-04-12T09:46:31;4.80;;;3.38;;
59458;SDS011;45269;43.568;22.244;2023-04-12T09:48:57;8.85;;;4.93;;
59458;SDS011;45269;43.568;22.244;2023-04-12T09:51:27;4.63;;;3.10;;
59458;SDS011;45269;43.568;22.244;2023-04-12T09:53:57;6.03;;;4.07;;
59458;SDS011;45269;43.568;22.244;2023-04-12T09:56:23;7.20;;;4.28;;
59458;SDS011;45269;43.568;22.244;2023-04-12T09:58:50;2.60;;;2.40;;
59458;SDS011;45269;43.568;22.244;2023-04-12T10:01:16;5.30;;;3.53;;
59458;SDS011;45269;43.568;22.244;2023-04-12T10:03:42;9.20;;;5.32;;
59458;SDS011;45269;43.568;22.244;2023-04-12T10:06:07;4.07;;;2.67;;
59458;SDS011;45269;43.568;22.244;2023-04-12T10:08:35;2.65;;;2.42;;
59458;SDS011;45269;43.568;22.244;2023-04-12T10:11:01;3.80;;;2.20;;
59458;SDS011;45269;43.568;22.244;2023-04-12T10:13:26;2.25;;;2.05;;
59458;SDS011;45269;43.568;22.244;2023-04-12T10:15:53;3.80;;;3.15;;
59458;SDS011;45269;43.568;22.244;2023-04-12T10:18:19;3.58;;;2.70;;
59458;SDS011;45269;43.568;22.244;2023-04-12T10:20:45;2.17;;;1.80;;
59458;SDS011;45269;43.568;22.244;2023-04-12T10:23:10;2.50;;;2.30;;
59458;SDS011;45269;43.568;22.244;2023-04-12T10:25:37;5.88;;;5.10;;
59458;SDS011;45269;43.568;22.244;2023-04-12T10:28:13;5.88;;;3.10;;
59458;SDS011;45269;43.568;22.244;2023-04-12T10:30:38;3.08;;;2.40;;
59458;SDS011;45269;43.568;22.244;2023-04-12T10:35:51;3.13;;;2.67;;
59458;SDS011;45269;43.568;22.244;2023-04-12T10:38:14;3.80;;;2.50;;
59458;SDS011;45269;43.568;22.244;2023-04-12T10:43:24;5.25;;;4.60;;
59458;SDS011;45269;43.568;22.244;2023-04-12T10:45:54;3.13;;;2.70;;
59458;SDS011;45269;43.568;22.244;2023-04-12T10:53:49;2.60;;;2.28;;
59458;SDS011;45269;43.568;22.244;2023-04-12T10:58:56;4.40;;;4.00;;
59458;SDS011;45269;43.568;22.244;2023-04-12T11:01:22;3.13;;;2.70;;
59458;SDS011;45269;43.568;22.244;2023-04-12T11:09:36;9.88;;;6.68;;
59458;SDS011;45269;43.568;22.244;2023-04-12T11:14:48;12.50;;;8.57;;
59458;SDS011;45269;43.568;22.244;2023-04-12T11:19:42;6.25;;;3.20;;
59458;SDS011;45269;43.568;22.244;2023-04-12T11:22:11;7.22;;;6.22;;
59458;SDS011;45269;43.568;22.244;2023-04-12T11:24:40;39.08;;;20.38;;
59458;SDS011;45269;43.568;22.244;2023-04-12T11:27:07;14.05;;;11.93;;
59458;SDS011;45269;43.568;22.244;2023-04-12T11:29:32;7.60;;;6.85;;
59458;SDS011;45269;43.568;22.244;2023-04-12T11:31:58;5.03;;;2.95;;
59458;SDS011;45269;43.568;22.244;2023-04-12T11:34:26;12.27;;;8.73;;
59458;SDS011;45269;43.568;22.244;2023-04-12T11:36:56;7.82;;;5.75;;
59458;SDS011;45269;43.568;22.244;2023-04-12T11:39:22;6.15;;;4.90;;
59458;SDS011;45269;43.568;22.244;2023-04-12T11:41:47;4.95;;;3.95;;
59458;SDS011;45269;43.568;22.244;2023-04-12T11:44:13;7.22;;;4.43;;
59458;SDS011;45269;43.568;22.244;2023-04-12T11:46:39;7.78;;;5.82;;
59458;SDS011;45269;43.568;22.244;2023-04-12T11:49:04;9.23;;;6.82;;
59458;SDS011;45269;43.568;22.244;2023-04-12T11:51:30;9.35;;;6.72;;
59458;SDS011;45269;43.568;22.244;2023-04-12T11:53:56;5.40;;;4.65;;
59458;SDS011;45269;43.568;22.244;2023-04-12T11:56:23;6.70;;;5.07;;
59458;SDS011;45269;43.568;22.244;2023-04-12T11:58:48;8.57;;;5.82;;
59458;SDS011;45269;43.568;22.244;2023-04-12T12:01:17;9.43;;;8.05;;
59458;SDS011;45269;43.568;22.244;2023-04-12T12:03:43;14.50;;;12.13;;
59458;SDS011;45269;43.568;22.244;2023-04-12T12:06:09;12.68;;;6.40;;
59458;SDS011;45269;43.568;22.244;2023-04-12T12:08:35;11.50;;;5.53;;
59458;SDS011;45269;43.568;22.244;2023-04-12T12:11:00;8.05;;;4.88;;
59458;SDS011;45269;43.568;22.244;2023-04-12T12:13:26;5.03;;;4.25;;
59458;SDS011;45269;43.568;22.244;2023-04-12T12:15:51;7.07;;;4.80;;
59458;SDS011;45269;43.568;22.244;2023-04-12T12:18:17;9.57;;;6.68;;
59458;SDS011;45269;43.568;22.244;2023-04-12T12:20:48;17.83;;;13.00;;
59458;SDS011;45269;43.568;22.244;2023-04-12T12:23:29;13.65;;;10.77;;
59458;SDS011;45269;43.568;22.244;2023-04-12T12:25:56;13.02;;;10.25;;
59458;SDS011;45269;43.568;22.244;2023-04-12T12:28:25;11.68;;;9.30;;
59458;SDS011;45269;43.568;22.244;2023-04-12T12:30:57;10.98;;;8.75;;
59458;SDS011;45269;43.568;22.244;2023-04-12T12:33:22;4.68;;;3.17;;
59458;SDS011;45269;43.568;22.244;2023-04-12T12:35:55;3.60;;;2.72;;
59458;SDS011;45269;43.568;22.244;2023-04-12T12:38:20;4.63;;;3.42;;
59458;SDS011;45269;43.568;22.244;2023-04-12T12:40:45;2.55;;;1.42;;
59458;SDS011;45269;43.568;22.244;2023-04-12T12:43:16;5.22;;;4.72;;
59458;SDS011;45269;43.568;22.244;2023-04-12T12:45:42;5.30;;;4.13;;
59458;SDS011;45269;43.568;22.244;2023-04-12T12:48:07;3.88;;;3.00;;
59458;SDS011;45269;43.568;22.244;2023-04-12T12:50:33;7.55;;;3.45;;
59458;SDS011;45269;43.568;22.244;2023-04-12T12:52:59;5.07;;;3.17;;
59458;SDS011;45269;43.568;22.244;2023-04-12T12:55:25;7.65;;;6.03;;
59458;SDS011;45269;43.568;22.244;2023-04-12T12:57:51;2.47;;;1.70;;
59458;SDS011;45269;43.568;22.244;2023-04-12T13:00:17;5.10;;;3.30;;
59458;SDS011;45269;43.568;22.244;2023-04-12T13:02:43;3.22;;;2.72;;
59458;SDS011;45269;43.568;22.244;2023-04-12T13:05:09;4.72;;;2.40;;
59458;SDS011;45269;43.568;22.244;2023-04-12T13:07:34;3.78;;;3.17;;
59458;SDS011;45269;43.568;22.244;2023-04-12T13:10:00;6.78;;;5.32;;
59458;SDS011;45269;43.568;22.244;2023-04-12T13:12:26;6.32;;;4.47;;
59458;SDS011;45269;43.568;22.244;2023-04-12T13:14:51;5.07;;;4.10;;
59458;SDS011;45269;43.568;22.244;2023-04-12T13:17:17;8.80;;;3.28;;
59458;SDS011;45269;43.568;22.244;2023-04-12T13:19:43;8.15;;;6.25;;
59458;SDS011;45269;43.568;22.244;2023-04-12T13:22:09;5.85;;;3.70;;
59458;SDS011;45269;43.568;22.244;2023-04-12T13:24:34;4.20;;;3.63;;
59458;SDS011;45269;43.568;22.244;2023-04-12T13:27:00;4.57;;;3.80;;
59458;SDS011;45269;43.568;22.244;2023-04-12T13:29:26;3.20;;;2.60;;
59458;SDS011;45269;43.568;22.244;2023-04-12T13:31:51;4.15;;;3.10;;
59458;SDS011;45269;43.568;22.244;2023-04-12T13:34:17;5.00;;;4.30;;
59458;SDS011;45269;43.568;22.244;2023-04-12T13:36:42;6.18;;;5.07;;
59458;SDS011;45269;43.568;22.244;2023-04-12T13:39:07;5.70;;;4.50;;
59458;SDS011;45269;43.568;22.244;2023-04-12T13:41:33;6.60;;;4.10;;
59458;SDS011;45269;43.568;22.244;2023-04-12T13:43:58;9.50;;;6.63;;
59458;SDS011;45269;43.568;22.244;2023-04-12T13:46:24;9.57;;;7.75;;
59458;SDS011;45269;43.568;22.244;2023-04-12T13:48:49;6.85;;;4.85;;
59458;SDS011;45269;43.568;22.244;2023-04-12T13:51:15;6.32;;;5.72;;
59458;SDS011;45269;43.568;22.244;2023-04-12T13:53:41;7.65;;;6.65;;
59458;SDS011;45269;43.568;22.244;2023-04-12T13:56:06;4.95;;;4.15;;
59458;SDS011;45269;43.568;22.244;2023-04-12T13:58:31;7.60;;;3.15;;
59458;SDS011;45269;43.568;22.244;2023-04-12T14:00:57;4.28;;;3.30;;
59458;SDS011;45269;43.568;22.244;2023-04-12T14:03:24;6.20;;;3.97;;
59458;SDS011;45269;43.568;22.244;2023-04-12T14:05:50;5.90;;;4.30;;
59458;SDS011;45269;43.568;22.244;2023-04-12T14:08:15;11.38;;;6.35;;
59458;SDS011;45269;43.568;22.244;2023-04-12T14:10:41;6.80;;;6.10;;
59458;SDS011;45269;43.568;22.244;2023-04-12T14:13:06;7.40;;;5.43;;
59458;SDS011;45269;43.568;22.244;2023-04-12T14:15:31;12.05;;;8.88;;
59458;SDS011;45269;43.568;22.244;2023-04-12T14:17:57;2.53;;;2.10;;
59458;SDS011;45269;43.568;22.244;2023-04-12T14:20:22;8.23;;;6.28;;
59458;SDS011;45269;43.568;22.244;2023-04-12T14:22:48;7.22;;;5.90;;
59458;SDS011;45269;43.568;22.244;2023-04-12T14:25:13;5.57;;;4.22;;
59458;SDS011;45269;43.568;22.244;2023-04-12T14:27:38;7.30;;;5.57;;
59458;SDS011;45269;43.568;22.244;2023-04-12T14:30:04;9.18;;;6.75;;
59458;SDS011;45269;43.568;22.244;2023-04-12T14:32:30;5.75;;;4.28;;
59458;SDS011;45269;43.568;22.244;2023-04-12T14:34:55;5.10;;;3.13;;
59458;SDS011;45269;43.568;22.244;2023-04-12T14:37:20;4.82;;;3.20;;
59458;SDS011;45269;43.568;22.244;2023-04-12T14:39:46;3.38;;;3.00;;
59458;SDS011;45269;43.568;22.244;2023-04-12T14:42:11;5.10;;;3.40;;
59458;SDS011;45269;43.568;22.244;2023-04-12T14:44:37;7.05;;;5.07;;
59458;SDS011;45269;43.568;22.244;2023-04-12T14:47:02;11.52;;;6.50;;
59458;SDS011;45269;43.568;22.244;2023-04-12T14:49:27;11.57;;;7.47;;
59458;SDS011;45269;43.568;22.244;2023-04-12T14:51:54;7.63;;;5.53;;
59458;SDS011;45269;43.568;22.244;2023-04-12T14:54:19;12.15;;;8.30;;
59458;SDS011;45269;43.568;22.244;2023-04-12T14:56:44;5.72;;;5.13;;
59458;SDS011;45269;43.568;22.244;2023-04-12T14:59:11;7.63;;;5.47;;
59458;SDS011;45269;43.568;22.244;2023-04-12T15:01:37;9.35;;;6.40;;
59458;SDS011;45269;43.568;22.244;2023-04-12T15:04:03;15.20;;;10.98;;
59458;SDS011;45269;43.568;22.244;2023-04-12T15:06:30;24.98;;;12.68;;